Ralls, Texas
Current Conditions -  °F | °C
As of 2:53 AM on Saturday 25 Oct 2014 (Local Time) from KLBB Reporting Station
Clear Clear  
Wind Chill: 56°   Ceiling: Unl
Heat Index: 56°   Visibility: 10mi
Dew Point: 48°   Wind: 6mph
Humidity: 75%   Direction: 200°SSW
Pressure: 30.17"   Gusts: NA
Location:  33.67°N, 101.39°W
Report Text: KLBB 250753Z 20005KT 10SM CLR 13/09 A3017 RMK AO2 SLP174 T01330089
Loading
Personal Weather Stations






























Interactive Weather Map New forecast layout! Learn more

10-Day Weather Forecast

Advertisements
Track Severe Weather on mobile